createdAt,value
2022-11-27T00:01:28.911Z,95133.75
2022-11-27T00:03:56.819Z,95132.69
2022-11-27T00:06:25.322Z,95133.75
2022-11-27T00:08:53.004Z,95134.78
2022-11-27T00:11:21.637Z,95145.66
2022-11-27T00:13:50.809Z,95147.56
2022-11-27T00:16:18.633Z,95145.66
2022-11-27T00:18:46.413Z,95144.03
2022-11-27T00:21:15.327Z,95139.41
2022-11-27T00:23:42.957Z,95140.50
2022-11-27T00:26:10.661Z,95131.50
2022-11-27T00:28:38.779Z,95128.00
2022-11-27T00:31:09.747Z,95120.66
2022-11-27T00:33:37.664Z,95123.34
2022-11-27T00:36:05.776Z,95115.47
2022-11-27T00:38:37.403Z,95108.97
2022-11-27T00:41:07.476Z,95103.53
2022-11-27T00:43:43.635Z,95100.25
2022-11-27T00:46:13.614Z,95101.91
2022-11-27T00:48:41.420Z,95100.25
2022-11-27T00:51:10.060Z,95097.53
2022-11-27T00:53:37.771Z,95096.47
2022-11-27T00:56:05.950Z,95085.84
2022-11-27T00:58:33.670Z,95086.91
2022-11-27T01:01:02.341Z,95096.69
2022-11-27T01:03:31.529Z,95093.19
2022-11-27T01:06:03.101Z,95092.34
2022-11-27T01:08:30.757Z,95097.78
2022-11-27T01:10:58.782Z,95099.66
2022-11-27T01:13:27.042Z,95094.22
2022-11-27T01:15:59.856Z,95093.66
2022-11-27T01:18:27.536Z,95090.13
2022-11-27T01:20:56.688Z,95092.00
2022-11-27T01:23:24.483Z,95088.22
2022-11-27T01:25:53.341Z,95090.13
2022-11-27T01:28:21.142Z,95083.88
2022-11-27T01:30:48.862Z,95076.56
2022-11-27T01:33:16.649Z,95079.28
2022-11-27T01:35:44.276Z,95077.63
2022-11-27T01:38:13.261Z,95062.41
2022-11-27T01:40:40.875Z,95069.72
2022-11-27T01:43:11.944Z,95060.75
2022-11-27T01:45:39.672Z,95064.28
2022-11-27T01:48:07.313Z,95061.56
2022-11-27T01:50:37.159Z,95059.94
2022-11-27T01:53:09.360Z,95054.50
2022-11-27T01:55:40.950Z,95054.50
2022-11-27T01:58:09.673Z,95054.50
2022-11-27T02:00:37.313Z,95042.00
2022-11-27T02:03:05.161Z,95044.72
2022-11-27T02:05:33.522Z,95042.00
2022-11-27T02:08:03.554Z,95041.16
2022-11-27T02:10:39.733Z,95042.22
2022-11-27T02:13:10.109Z,95034.09
2022-11-27T02:15:44.055Z,95033.28
2022-11-27T02:18:15.565Z,95034.34
2022-11-27T02:20:49.643Z,95024.28
2022-11-27T02:23:30.890Z,95015.34
2022-11-27T02:26:19.512Z,95014.50
2022-11-27T02:29:03.844Z,95003.66
2022-11-27T02:31:36.682Z,95008.28
2022-11-27T02:34:09.132Z,95000.13
2022-11-27T02:36:37.866Z,94998.47
2022-11-27T02:39:09.102Z,94995.75
2022-11-27T02:41:40.400Z,94994.09
2022-11-27T02:44:12.793Z,94994.09
2022-11-27T02:46:41.398Z,94989.75
2022-11-27T02:49:12.379Z,94979.94
2022-11-27T02:51:50.713Z,94982.66
2022-11-27T02:54:27.756Z,94975.59
2022-11-27T02:56:59.186Z,94976.44
2022-11-27T02:59:49.264Z,94970.16
2022-11-27T03:02:19.931Z,94961.22
2022-11-27T03:04:50.845Z,94961.22
2022-11-27T03:07:23.842Z,94956.84
2022-11-27T03:10:00.116Z,94954.16
2022-11-27T03:12:36.533Z,94952.22
2022-11-27T03:15:13.113Z,94947.88
2022-11-27T03:17:51.545Z,94949.78
2022-11-27T03:20:27.201Z,94953.31
2022-11-27T03:23:02.465Z,94944.34
2022-11-27T03:25:31.500Z,94941.88
2022-11-27T03:28:00.405Z,94948.13
2022-11-27T03:30:38.168Z,94953.56
2022-11-27T03:33:16.756Z,94949.19
2022-11-27T03:35:52.498Z,94945.69
2022-11-27T03:38:24.183Z,94944.84
2022-11-27T03:40:59.476Z,94944.03
2022-11-27T03:43:37.283Z,94946.75
2022-11-27T03:46:20.059Z,94949.47
2022-11-27T03:49:02.992Z,94945.13
2022-11-27T03:51:46.315Z,94934.25
2022-11-27T03:54:21.694Z,94938.84
2022-11-27T03:56:55.474Z,94936.97
2022-11-27T03:59:31.938Z,94932.63
2022-11-27T04:02:09.687Z,94920.13
2022-11-27T04:04:40.909Z,94914.69
2022-11-27T04:07:27.849Z,94921.75
2022-11-27T04:10:03.469Z,94923.63
2022-11-27T04:12:35.914Z,94919.28
2022-11-27T04:15:21.867Z,94919.28
2022-11-27T04:18:01.698Z,94916.81
2022-11-27T04:20:32.731Z,94921.16
2022-11-27T04:23:06.556Z,94918.44
2022-11-27T04:25:46.735Z,94932.84
2022-11-27T04:28:24.487Z,94937.44
2022-11-27T04:30:56.046Z,94939.38
2022-11-27T04:33:37.142Z,94937.44
2022-11-27T04:36:07.263Z,94942.88
2022-11-27T04:38:41.638Z,94928.50
2022-11-27T04:41:16.197Z,94941.00
2022-11-27T04:43:55.871Z,94931.22
2022-11-27T04:46:29.670Z,94932.03
2022-11-27T04:49:07.723Z,94929.31
2022-11-27T04:51:44.464Z,94928.50
2022-11-27T04:54:17.846Z,94928.50
2022-11-27T04:56:52.332Z,94930.38
2022-11-27T04:59:25.053Z,94932.84
2022-11-27T05:01:53.220Z,94936.66
2022-11-27T05:04:28.257Z,94933.94
2022-11-27T05:07:07.016Z,94945.59
2022-11-27T05:09:45.384Z,94937.72
2022-11-27T05:12:26.876Z,94936.66
2022-11-27T05:15:03.147Z,94940.16
2022-11-27T05:17:33.546Z,94938.53
2022-11-27T05:20:04.405Z,94935.00
2022-11-27T05:22:36.779Z,94932.28
2022-11-27T05:25:05.754Z,94934.72
2022-11-27T05:27:33.916Z,94930.38
2022-11-27T05:30:11.437Z,94940.44
2022-11-27T05:32:46.602Z,94937.72
2022-11-27T05:35:25.393Z,94944.78
2022-11-27T05:37:58.783Z,94926.88
2022-11-27T05:40:39.356Z,94931.22
2022-11-27T05:43:16.939Z,94929.56
2022-11-27T05:45:59.140Z,94929.56
2022-11-27T05:48:36.176Z,94923.06
2022-11-27T05:51:18.136Z,94922.25
2022-11-27T05:53:49.234Z,94924.94
2022-11-27T05:56:39.807Z,94930.38
2022-11-27T05:59:18.542Z,94926.03
2022-11-27T06:01:55.806Z,94935.00
2022-11-27T06:04:41.587Z,94931.22
2022-11-27T06:07:19.236Z,94926.03
2022-11-27T06:10:05.952Z,94916.00
2022-11-27T06:12:41.063Z,94922.25
2022-11-27T06:15:14.902Z,94916.00
2022-11-27T06:17:45.990Z,94920.59
2022-11-27T06:20:22.629Z,94902.66
2022-11-27T06:22:59.624Z,94902.66
2022-11-27T06:25:50.413Z,94904.56
2022-11-27T06:28:25.786Z,94908.09
2022-11-27T06:31:06.384Z,94896.44
2022-11-27T06:33:42.005Z,94899.94
2022-11-27T06:36:22.803Z,94896.44
2022-11-27T06:39:33.264Z,94900.22
2022-11-27T06:42:09.156Z,94890.16
2022-11-27T06:44:44.739Z,94889.38
2022-11-27T06:47:21.288Z,94887.47
2022-11-27T06:49:53.457Z,94880.38
2022-11-27T06:52:40.391Z,94884.75
2022-11-27T06:55:20.085Z,94888.53
2022-11-27T06:57:57.374Z,94890.16
2022-11-27T07:00:30.046Z,94888.53
2022-11-27T07:03:11.787Z,94880.38
2022-11-27T07:05:46.051Z,94878.50
2022-11-27T07:08:25.073Z,94878.75
2022-11-27T07:11:40.822Z,94873.31
2022-11-27T07:14:58.852Z,94875.19
2022-11-27T07:17:31.964Z,94870.84
2022-11-27T07:20:08.541Z,94872.47
2022-11-27T07:23:09.803Z,94880.63
2022-11-27T07:25:56.834Z,94877.09
2022-11-27T07:28:31.010Z,94880.63
2022-11-27T07:31:16.699Z,94868.13
2022-11-27T07:33:55.747Z,94869.78
2022-11-27T07:36:27.873Z,94869.78
2022-11-27T07:38:55.794Z,94868.13
2022-11-27T07:41:40.009Z,94852.69
2022-11-27T07:44:23.879Z,94843.69
2022-11-27T07:47:02.125Z,94850.72
2022-11-27T07:49:37.533Z,94853.75
2022-11-27T07:52:05.473Z,94865.81
2022-11-27T07:54:46.768Z,94878.63
2022-11-27T07:57:18.707Z,94872.84
2022-11-27T08:00:11.083Z,94874.69
2022-11-27T08:02:38.924Z,94878.25
2022-11-27T08:05:12.393Z,94874.13
2022-11-27T08:07:40.996Z,94870.97
2022-11-27T08:10:09.314Z,94879.34
2022-11-27T08:12:37.039Z,94868.19
2022-11-27T08:15:33.159Z,94864.03
2022-11-27T08:18:00.824Z,94868.81
2022-11-27T08:20:28.647Z,94863.22
2022-11-27T08:23:02.705Z,94858.69
2022-11-27T08:25:30.967Z,94854.16
2022-11-27T08:27:58.689Z,94847.16
2022-11-27T08:30:26.376Z,94842.66
2022-11-27T08:32:55.520Z,94846.53
2022-11-27T08:35:23.749Z,94844.69
2022-11-27T08:38:10.608Z,94842.38
2022-11-27T08:40:39.583Z,94839.41
2022-11-27T08:43:07.786Z,94833.97
2022-11-27T08:45:36.211Z,94835.59
2022-11-27T08:48:05.836Z,94842.66
2022-11-27T08:50:33.862Z,94842.44
2022-11-27T08:53:01.616Z,94847.63
2022-11-27T08:55:29.244Z,94835.94
2022-11-27T08:57:57.070Z,94833.53
2022-11-27T09:00:27.962Z,94821.63
2022-11-27T09:02:55.978Z,94827.59
2022-11-27T09:05:25.212Z,94823.31
2022-11-27T09:07:52.903Z,94817.13
2022-11-27T09:10:20.552Z,94818.84
2022-11-27T09:12:49.316Z,94810.75
2022-11-27T09:15:17.296Z,94812.47
2022-11-27T09:17:44.976Z,94805.22
2022-11-27T09:20:14.275Z,94808.56
2022-11-27T09:22:43.444Z,94811.06
2022-11-27T09:25:11.287Z,94816.31
2022-11-27T09:27:39.290Z,94814.47
2022-11-27T09:30:08.874Z,94803.66
2022-11-27T09:32:36.561Z,94802.56
2022-11-27T09:35:04.444Z,94796.66
2022-11-27T09:37:32.249Z,94792.63
2022-11-27T09:40:01.530Z,94787.56
2022-11-27T09:42:40.940Z,94789.22
2022-11-27T09:45:12.066Z,94792.56
2022-11-27T09:47:42.114Z,94791.78
2022-11-27T09:50:13.684Z,94794.28
2022-11-27T09:52:42.824Z,94791.34
2022-11-27T09:55:15.436Z,94791.38
2022-11-27T09:57:43.065Z,94787.31
2022-11-27T10:00:14.411Z,94786.00
2022-11-27T10:02:43.032Z,94787.13
2022-11-27T10:05:15.303Z,94789.06
2022-11-27T10:07:50.766Z,94784.72
2022-11-27T10:10:30.356Z,94779.31
2022-11-27T10:13:01.526Z,94784.25
2022-11-27T10:15:34.319Z,94772.00
2022-11-27T10:18:04.037Z,94775.84
2022-11-27T10:20:33.415Z,94779.97
2022-11-27T10:23:03.227Z,94768.28
2022-11-27T10:25:34.901Z,94757.16
2022-11-27T10:28:07.440Z,94762.59
2022-11-27T10:30:38.499Z,94757.47
2022-11-27T10:33:13.259Z,94760.72
2022-11-27T10:35:40.896Z,94763.50
2022-11-27T10:38:12.000Z,94751.53
2022-11-27T10:40:42.817Z,94749.91
2022-11-27T10:43:11.830Z,94737.63
2022-11-27T10:45:43.701Z,94736.56
2022-11-27T10:48:11.537Z,94741.19
2022-11-27T10:50:39.213Z,94728.97
2022-11-27T10:53:08.244Z,94722.44
2022-11-27T10:55:45.375Z,94724.88
2022-11-27T10:58:16.969Z,94731.94
2022-11-27T11:00:44.836Z,94722.69
2022-11-27T11:03:17.132Z,94731.44
2022-11-27T11:06:19.522Z,94732.00
2022-11-27T11:08:42.742Z,94730.91
2022-11-27T11:11:14.160Z,94727.91
2022-11-27T11:13:45.912Z,94732.78
2022-11-27T11:16:23.370Z,94736.06
2022-11-27T11:18:52.873Z,94730.09
2022-11-27T11:21:24.477Z,94728.19
2022-11-27T11:23:54.460Z,94727.34
2022-11-27T11:26:28.116Z,94729.47
2022-11-27T11:28:57.041Z,94721.84
2022-11-27T11:31:29.973Z,94730.25
2022-11-27T11:33:58.934Z,94721.84
2022-11-27T11:36:26.601Z,94714.25
2022-11-27T11:38:54.309Z,94709.09
2022-11-27T11:41:23.710Z,94705.53
2022-11-27T11:43:57.148Z,94702.00
2022-11-27T11:46:26.153Z,94699.84
2022-11-27T11:48:58.744Z,94701.47
2022-11-27T11:51:36.066Z,94696.56
2022-11-27T11:54:10.714Z,94690.34
2022-11-27T11:56:39.692Z,94677.53
2022-11-27T11:59:11.685Z,94689.78
2022-11-27T12:01:46.536Z,94688.72
2022-11-27T12:04:23.714Z,94675.94
2022-11-27T12:06:55.901Z,94675.09
2022-11-27T12:09:28.531Z,94675.94
2022-11-27T12:11:58.716Z,94671.59
2022-11-27T12:14:37.400Z,94666.66
2022-11-27T12:17:10.232Z,94650.25
2022-11-27T12:19:51.613Z,94653.75
2022-11-27T12:22:25.448Z,94643.13
2022-11-27T12:24:56.767Z,94633.34
2022-11-27T12:27:28.496Z,94636.34
2022-11-27T12:30:05.165Z,94638.00
2022-11-27T12:32:57.476Z,94635.81
2022-11-27T12:35:32.116Z,94630.13
2022-11-27T12:38:15.385Z,94618.16
2022-11-27T12:40:56.507Z,94630.41
2022-11-27T12:43:25.480Z,94617.38
2022-11-27T12:45:56.773Z,94617.91
2022-11-27T12:48:25.493Z,94620.34
2022-11-27T12:50:55.237Z,94621.97
2022-11-27T12:53:25.440Z,94622.50
2022-11-27T12:56:00.225Z,94630.16
2022-11-27T12:58:29.553Z,94622.53
2022-11-27T13:01:23.643Z,94617.66
2022-11-27T13:04:23.297Z,94613.31
2022-11-27T13:07:13.073Z,94606.78
2022-11-27T13:10:04.345Z,94600.50
2022-11-27T13:12:33.656Z,94582.28
2022-11-27T13:15:03.306Z,94583.94
2022-11-27T13:17:35.176Z,94577.66
2022-11-27T13:20:02.804Z,94574.94
2022-11-27T13:22:32.065Z,94567.59
2022-11-27T13:25:01.581Z,94567.34
2022-11-27T13:27:30.048Z,94557.53
2022-11-27T13:29:58.740Z,94560.81
2022-11-27T13:32:28.761Z,94568.69
2022-11-27T13:34:58.638Z,94568.16
2022-11-27T13:37:28.838Z,94566.00
2022-11-27T13:40:07.055Z,94555.38
2022-11-27T13:42:35.719Z,94559.47
2022-11-27T13:45:05.810Z,94554.03
2022-11-27T13:47:37.547Z,94546.66
2022-11-27T13:50:09.097Z,94551.31
2022-11-27T13:52:36.962Z,94549.94
2022-11-27T13:55:06.233Z,94539.88
2022-11-27T13:57:34.275Z,94547.22
2022-11-27T14:00:02.694Z,94545.06
2022-11-27T14:02:41.534Z,94549.13
2022-11-27T14:05:11.160Z,94543.97
2022-11-27T14:07:41.166Z,94546.94
2022-11-27T14:10:11.353Z,94541.25
2022-11-27T14:12:38.980Z,94539.59
2022-11-27T14:15:09.863Z,94545.06
2022-11-27T14:17:39.463Z,94535.25
2022-11-27T14:20:23.878Z,94529.28
2022-11-27T14:23:13.244Z,94529.53
2022-11-27T14:25:40.820Z,94525.72
2022-11-27T14:28:15.712Z,94520.84
2022-11-27T14:30:46.885Z,94520.84
2022-11-27T14:33:19.082Z,94517.56
2022-11-27T14:35:49.264Z,94524.38
2022-11-27T14:38:18.262Z,94522.19
2022-11-27T14:40:46.222Z,94527.88
2022-11-27T14:43:16.304Z,94532.25
2022-11-27T14:45:45.814Z,94515.38
2022-11-27T14:48:17.028Z,94514.28
2022-11-27T14:50:44.606Z,94511.31
2022-11-27T14:53:13.843Z,94498.22
2022-11-27T14:55:42.914Z,94506.66
2022-11-27T14:58:12.402Z,94505.28
2022-11-27T15:00:39.981Z,94495.22
2022-11-27T15:03:11.574Z,94491.16
2022-11-27T15:05:39.442Z,94498.50
2022-11-27T15:08:09.790Z,94496.06
2022-11-27T15:10:38.148Z,94503.94
2022-11-27T15:13:08.165Z,94499.03
2022-11-27T15:15:39.291Z,94508.56
2022-11-27T15:18:07.853Z,94498.22
2022-11-27T15:20:37.485Z,94497.69
2022-11-27T15:23:05.188Z,94492.78
2022-11-27T15:25:38.040Z,94493.91
2022-11-27T15:28:33.567Z,94489.78
2022-11-27T15:31:01.201Z,94489.28
2022-11-27T15:33:29.511Z,94484.38
2022-11-27T15:36:14.083Z,94473.78
2022-11-27T15:38:42.101Z,94482.19
2022-11-27T15:41:20.026Z,94469.16
2022-11-27T15:43:49.032Z,94470.50
2022-11-27T15:46:16.756Z,94466.16
2022-11-27T15:48:44.423Z,94460.16
2022-11-27T15:51:12.324Z,94461.50
2022-11-27T15:53:40.049Z,94451.19
2022-11-27T15:56:08.305Z,94440.03
2022-11-27T15:58:35.971Z,94439.47
2022-11-27T16:01:06.328Z,94436.47
2022-11-27T16:03:33.972Z,94433.50
2022-11-27T16:06:04.501Z,94435.13
2022-11-27T16:08:32.160Z,94428.59
2022-11-27T16:11:03.053Z,94431.00
2022-11-27T16:13:30.768Z,94426.41
2022-11-27T16:16:02.198Z,94419.88
2022-11-27T16:18:32.167Z,94414.16
2022-11-27T16:21:03.485Z,94406.78
2022-11-27T16:23:31.343Z,94399.72
2022-11-27T16:25:59.210Z,94392.38
2022-11-27T16:28:26.864Z,94385.31
2022-11-27T16:30:54.738Z,94372.81
2022-11-27T16:33:22.433Z,94360.81
2022-11-27T16:35:52.319Z,94358.09
2022-11-27T16:38:22.113Z,94364.09
2022-11-27T16:40:49.791Z,94355.66
2022-11-27T16:43:17.404Z,94361.94
2022-11-27T16:45:45.040Z,94349.94
2022-11-27T16:48:12.750Z,94351.31
2022-11-27T16:50:40.487Z,94345.88
2022-11-27T16:53:09.592Z,94345.31
2022-11-27T16:55:37.299Z,94348.56
2022-11-27T16:58:04.908Z,94344.50
2022-11-27T17:00:32.464Z,94345.84
2022-11-27T17:03:00.105Z,94345.31
2022-11-27T17:05:27.765Z,94342.34
2022-11-27T17:07:55.583Z,94334.44
2022-11-27T17:10:24.578Z,94334.72
2022-11-27T17:12:52.224Z,94336.09
2022-11-27T17:15:19.829Z,94336.34
2022-11-27T17:17:47.404Z,94330.69
2022-11-27T17:20:14.991Z,94327.69
2022-11-27T17:22:42.599Z,94325.53
2022-11-27T17:25:11.045Z,94326.88
2022-11-27T17:27:39.927Z,94324.72
2022-11-27T17:30:08.967Z,94320.91
2022-11-27T17:32:36.575Z,94315.75
2022-11-27T17:35:04.258Z,94320.66
2022-11-27T17:37:31.819Z,94319.28
2022-11-27T17:39:59.440Z,94308.97
2022-11-27T17:42:27.132Z,94303.00
2022-11-27T17:44:56.364Z,94308.72
2022-11-27T17:47:23.964Z,94303.81
2022-11-27T17:49:51.672Z,94297.56
2022-11-27T17:52:19.422Z,94289.69
2022-11-27T17:54:47.076Z,94280.97
2022-11-27T17:57:14.639Z,94282.34
2022-11-27T17:59:42.413Z,94272.03
2022-11-27T18:02:12.509Z,94268.50
2022-11-27T18:04:40.156Z,94269.03
2022-11-27T18:07:07.823Z,94277.72
2022-11-27T18:09:35.391Z,94278.25
2022-11-27T18:12:02.993Z,94268.75
2022-11-27T18:14:30.586Z,94266.28
2022-11-27T18:17:03.984Z,94264.38
2022-11-27T18:19:32.946Z,94264.63
2022-11-27T18:22:00.842Z,94269.53
2022-11-27T18:24:28.521Z,94260.84
2022-11-27T18:27:11.567Z,94255.09
2022-11-27T18:29:40.093Z,94253.47
2022-11-27T18:32:08.093Z,94238.78
2022-11-27T18:34:37.053Z,94236.59
2022-11-27T18:37:04.941Z,94244.19
2022-11-27T18:39:32.626Z,94240.38
2022-11-27T18:42:00.203Z,94233.84
2022-11-27T18:44:27.798Z,94244.47
2022-11-27T18:46:55.591Z,94246.09
2022-11-27T18:49:23.733Z,94239.53
2022-11-27T18:51:53.080Z,94238.44
2022-11-27T18:54:20.690Z,94229.19
2022-11-27T18:56:48.264Z,94223.75
2022-11-27T18:59:16.527Z,94226.22
2022-11-27T19:01:44.114Z,94223.75
2022-11-27T19:04:11.885Z,94235.16
2022-11-27T19:06:39.720Z,94228.41
2022-11-27T19:09:08.694Z,94215.06
2022-11-27T19:11:36.321Z,94208.25
2022-11-27T19:14:04.536Z,94205.00
2022-11-27T19:16:33.057Z,94199.56
2022-11-27T19:19:01.263Z,94193.34
2022-11-27T19:21:29.568Z,94196.59
2022-11-27T19:23:57.755Z,94189.22
2022-11-27T19:26:27.839Z,94190.31
2022-11-27T19:28:56.830Z,94187.31
2022-11-27T19:31:24.935Z,94184.59
2022-11-27T19:33:53.124Z,94186.22
2022-11-27T19:36:20.764Z,94182.41
2022-11-27T19:38:48.417Z,94181.06
2022-11-27T19:41:17.072Z,94185.66
2022-11-27T19:43:47.197Z,94180.75
2022-11-27T19:46:16.225Z,94171.50
2022-11-27T19:48:44.079Z,94172.31
2022-11-27T19:51:12.096Z,94177.50
2022-11-27T19:53:39.945Z,94172.06
2022-11-27T19:56:10.893Z,94167.16
2022-11-27T19:58:38.653Z,94161.41
2022-11-27T20:01:08.596Z,94158.41
2022-11-27T20:03:36.810Z,94160.03
2022-11-27T20:06:05.851Z,94152.72
2022-11-27T20:08:33.491Z,94158.16
2022-11-27T20:11:01.129Z,94146.97
2022-11-27T20:13:28.739Z,94143.16
2022-11-27T20:15:56.495Z,94140.94
2022-11-27T20:18:26.351Z,94137.13
2022-11-27T20:20:53.952Z,94139.06
2022-11-27T20:23:21.598Z,94142.31
2022-11-27T20:25:50.452Z,94130.06
2022-11-27T20:28:18.092Z,94133.09
2022-11-27T20:30:45.787Z,94132.25
2022-11-27T20:33:17.445Z,94128.22
2022-11-27T20:35:46.590Z,94125.75
2022-11-27T20:38:14.203Z,94121.94
2022-11-27T20:40:41.736Z,94106.72
2022-11-27T20:43:09.584Z,94109.44
2022-11-27T20:45:37.812Z,94096.94
2022-11-27T20:48:05.876Z,94093.13
2022-11-27T20:50:33.487Z,94093.13
2022-11-27T20:53:02.450Z,94086.06
2022-11-27T20:55:30.566Z,94081.41
2022-11-27T20:57:58.148Z,94077.88
2022-11-27T21:00:25.840Z,94071.94
2022-11-27T21:02:53.457Z,94065.66
2022-11-27T21:05:21.471Z,94059.16
2022-11-27T21:07:49.144Z,94059.75
2022-11-27T21:10:20.013Z,94066.28
2022-11-27T21:12:47.647Z,94067.13
2022-11-27T21:15:15.304Z,94060.59
2022-11-27T21:17:43.293Z,94056.81
2022-11-27T21:20:11.652Z,94068.28
2022-11-27T21:22:42.495Z,94061.78
2022-11-27T21:25:10.182Z,94056.88
2022-11-27T21:27:39.455Z,94047.66
2022-11-27T21:30:08.455Z,94045.53
2022-11-27T21:32:36.176Z,94046.09
2022-11-27T21:35:04.069Z,94038.47
2022-11-27T21:37:31.693Z,94029.00
2022-11-27T21:39:59.392Z,94035.78
2022-11-27T21:42:29.127Z,94038.00
2022-11-27T21:44:58.315Z,94028.47
2022-11-27T21:47:25.947Z,94027.13
2022-11-27T21:49:53.529Z,94024.97
2022-11-27T21:52:21.160Z,94020.94
2022-11-27T21:54:48.803Z,94013.84
2022-11-27T21:57:17.165Z,94010.59
2022-11-27T21:59:44.794Z,94009.28
2022-11-27T22:02:14.209Z,94008.72
2022-11-27T22:04:43.161Z,93999.22
2022-11-27T22:07:11.048Z,93999.47
2022-11-27T22:09:38.655Z,93996.22
2022-11-27T22:12:06.980Z,93993.78
2022-11-27T22:14:34.715Z,93987.81
2022-11-27T22:17:02.414Z,93990.84
2022-11-27T22:19:31.435Z,93972.91
2022-11-27T22:21:59.109Z,93975.06
2022-11-27T22:24:26.727Z,93979.97
2022-11-27T22:26:54.308Z,93977.25
2022-11-27T22:29:22.023Z,93981.06
2022-11-27T22:31:49.597Z,93973.22
2022-11-27T22:34:17.277Z,93976.19
2022-11-27T22:36:46.210Z,93980.00
2022-11-27T22:39:13.824Z,93976.47
2022-11-27T22:41:41.563Z,93971.34
2022-11-27T22:44:09.571Z,93977.03
2022-11-27T22:46:37.380Z,93969.72
2022-11-27T22:49:06.284Z,93967.25
2022-11-27T22:51:34.716Z,93972.69
2022-11-27T22:54:03.825Z,93975.69
2022-11-27T22:56:33.536Z,93978.69
2022-11-27T22:59:24.773Z,93978.69
2022-11-27T23:01:49.469Z,93985.75
2022-11-27T23:04:17.200Z,93996.09
2022-11-27T23:06:47.835Z,93996.09
2022-11-27T23:09:17.704Z,93997.97
2022-11-27T23:11:45.389Z,93991.19
2022-11-27T23:14:13.460Z,93997.44
2022-11-27T23:16:41.213Z,93981.16
2022-11-27T23:19:08.887Z,93978.44
2022-11-27T23:21:38.549Z,93964.84
2022-11-27T23:24:06.590Z,93957.78
2022-11-27T23:26:35.634Z,93955.09
2022-11-27T23:29:03.408Z,93957.78
2022-11-27T23:31:32.404Z,93952.63
2022-11-27T23:34:01.270Z,93945.31
2022-11-27T23:36:28.975Z,93930.91
2022-11-27T23:38:56.565Z,93934.72
2022-11-27T23:41:25.301Z,93929.28
2022-11-27T23:43:54.501Z,93933.91
2022-11-27T23:46:23.523Z,93937.72
2022-11-27T23:48:51.204Z,93944.78
2022-11-27T23:51:19.973Z,93945.88
2022-11-27T23:53:47.882Z,93940.44
2022-11-27T23:56:16.450Z,93953.19
2022-11-27T23:58:47.378Z,93941.53
